Language: 


Des rapports , des résumés tant et plus, au choix de chacun....


Données Historiques de Météogheer
Journalier Rapport pour Janvier 1, 2017 Unitée:  Les deux    Impériale   Métrique
Suivant Jour »
Journalier Hebdomadaire Mensuel Annuel Sur mesure
  Max: Min: Moyenne:
Température: 34 °F /  1.1 °C 27 °F /  -2.8 °C 30.4 °F /  -0.9 °C
Point de rosée: 33.4 °F /  0.8 °C 26.4 °F /  -3.1 °C 30 °F /  -1.1 °C
Humidité: 98% 98% 98%
Vent: 10.3mph /  16.6km/h - 5.1mph /  8.2km/h
Rafales: 13mph /  20.9km/h - -
Vent- - South
Pression: 30.3 in /  1026.0 hPa 30 in /  1016.1 hPa -
Pluie: 0 in /  0.0 mm    
Historical Graphs
 
 
Données tabulaires pour Janvier 1, 2017
Heure Température Point de rosée Pression Vent Vent Rafales Humidité Pluie Taux (Horaire) Conditions
00:00 30.2 °F /  -1.0 °C 29.7 °F /  -1.3 °C 30.3in /  1026.0hPa SSE 3.8mph /  6.1km/h 5.4mph /  8.7km/h 98% 0in /  0.0mm
00:09 30.2 °F /  -1.0 °C 29.7 °F /  -1.3 °C 30.3in /  1026.0hPa SSE 3.4mph /  5.5km/h 5.6mph /  9.0km/h 98% 0in /  0.0mm
00:19 30 °F /  -1.1 °C 29.7 °F /  -1.3 °C 30.3in /  1026.0hPa SSE 5.8mph /  9.3km/h 7.4mph /  11.9km/h 98% 0in /  0.0mm
00:29 29.8 °F /  -1.2 °C 29.5 °F /  -1.4 °C 30.3in /  1026.0hPa SSE 3.6mph /  5.8km/h 6mph /  9.7km/h 98% 0in /  0.0mm
00:39 29.8 °F /  -1.2 °C 29.5 °F /  -1.4 °C 30.3in /  1026.0hPa SSE 4.7mph /  7.6km/h 5.4mph /  8.7km/h 98% 0in /  0.0mm
00:49 29.7 °F /  -1.3 °C 29.1 °F /  -1.6 °C 30.3in /  1024.9hPa SSE 4.7mph /  7.6km/h 6mph /  9.7km/h 98% 0in /  0.0mm
00:59 29.5 °F /  -1.4 °C 28.9 °F /  -1.7 °C 30.3in /  1024.9hPa SSE 3.1mph /  5.0km/h 5.8mph /  9.3km/h 98% 0in /  0.0mm
01:09 29.5 °F /  -1.4 °C 28.9 °F /  -1.7 °C 30.3in /  1024.9hPa SSE 3.4mph /  5.5km/h 6.9mph /  11.1km/h 98% 0in /  0.0mm
01:19 29.5 °F /  -1.4 °C 28.9 °F /  -1.7 °C 30.3in /  1024.9hPa SSE 3.4mph /  5.5km/h 5.8mph /  9.3km/h 98% 0in /  0.0mm
01:29 29.5 °F /  -1.4 °C 28.9 °F /  -1.7 °C 30.3in /  1024.9hPa SSE 3.6mph /  5.8km/h 6.5mph /  10.5km/h 98% 0in /  0.0mm
01:39 29.5 °F /  -1.4 °C 28.9 °F /  -1.7 °C 30.3in /  1024.9hPa SSE 3.1mph /  5.0km/h 5.4mph /  8.7km/h 98% 0in /  0.0mm
01:49 29.1 °F /  -1.6 °C 28.8 °F /  -1.8 °C 30.3in /  1024.9hPa SSE 4mph /  6.4km/h 5.6mph /  9.0km/h 98% 0in /  0.0mm
01:59 28.9 °F /  -1.7 °C 28.6 °F /  -1.9 °C 30.3in /  1024.9hPa SSE 2.5mph /  4.0km/h 6.5mph /  10.5km/h 98% 0in /  0.0mm
02:09 28.9 °F /  -1.7 °C 28.6 °F /  -1.9 °C 30.3in /  1024.9hPa SSE 5.6mph /  9.0km/h 6mph /  9.7km/h 98% 0in /  0.0mm
02:19 28.9 °F /  -1.7 °C 28.6 °F /  -1.9 °C 30.3in /  1024.9hPa SSE 4.3mph /  6.9km/h 7.6mph /  12.2km/h 98% 0in /  0.0mm
02:29 28.9 °F /  -1.7 °C 28.6 °F /  -1.9 °C 30.3in /  1024.9hPa SSE 5.4mph /  8.7km/h 6.9mph /  11.1km/h 98% 0in /  0.0mm
02:39 28.8 °F /  -1.8 °C 28.2 °F /  -2.1 °C 30.3in /  1024.9hPa SSE 3.4mph /  5.5km/h 8.1mph /  13.0km/h 98% 0in /  0.0mm
02:49 28.6 °F /  -1.9 °C 28.2 °F /  -2.1 °C 30.2in /  1023.9hPa SSE 5.4mph /  8.7km/h 8.7mph /  14.0km/h 98% 0in /  0.0mm
02:59 28.6 °F /  -1.9 °C 28.2 °F /  -2.1 °C 30.2in /  1023.9hPa SSE 4.9mph /  7.9km/h 7.8mph /  12.6km/h 98% 0in /  0.0mm
03:09 28.6 °F /  -1.9 °C 28.2 °F /  -2.1 °C 30.2in /  1023.9hPa SSE 4.3mph /  6.9km/h 6mph /  9.7km/h 98% 0in /  0.0mm
03:19 28.6 °F /  -1.9 °C 28.2 °F /  -2.1 °C 30.2in /  1022.9hPa SSE 3.1mph /  5.0km/h 6mph /  9.7km/h 98% 0in /  0.0mm
03:29 28.6 °F /  -1.9 °C 28.2 °F /  -2.1 °C 30.2in /  1022.9hPa SSE 4mph /  6.4km/h 6.5mph /  10.5km/h 98% 0in /  0.0mm
03:39 28.6 °F /  -1.9 °C 28.2 °F /  -2.1 °C 30.2in /  1022.9hPa SSE 5.8mph /  9.3km/h 7.6mph /  12.2km/h 98% 0in /  0.0mm
03:49 28.6 °F /  -1.9 °C 28.2 °F /  -2.1 °C 30.2in /  1022.9hPa SSE 2.5mph /  4.0km/h 5.8mph /  9.3km/h 98% 0in /  0.0mm
03:59 28.6 °F /  -1.9 °C 28 °F /  -2.2 °C 30.2in /  1022.9hPa Calm   6.5mph /  10.5km/h 98% 0in /  0.0mm
04:09 28.6 °F /  -1.9 °C 28 °F /  -2.2 °C 30.2in /  1022.9hPa SSE 5.4mph /  8.7km/h 8.1mph /  13.0km/h 98% 0in /  0.0mm
04:19 28.2 °F /  -2.1 °C 27.9 °F /  -2.3 °C 30.2in /  1023.9hPa SSE 3.4mph /  5.5km/h 7.4mph /  11.9km/h 98% 0in /  0.0mm
04:29 28 °F /  -2.2 °C 27.7 °F /  -2.4 °C 30.2in /  1023.9hPa SSE 4mph /  6.4km/h 8.1mph /  13.0km/h 98% 0in /  0.0mm
04:39 28 °F /  -2.2 °C 27.7 °F /  -2.4 °C 30.2in /  1022.9hPa SSE 5.8mph /  9.3km/h 6.5mph /  10.5km/h 98% 0in /  0.0mm
04:49 28.2 °F /  -2.1 °C 27.9 °F /  -2.3 °C 30.2in /  1022.9hPa SSE 2.9mph /  4.7km/h 5.8mph /  9.3km/h 98% 0in /  0.0mm
04:59 28 °F /  -2.2 °C 27.7 °F /  -2.4 °C 30.2in /  1022.9hPa SSE 3.6mph /  5.8km/h 6.5mph /  10.5km/h 98% 0in /  0.0mm
05:09 28 °F /  -2.2 °C 27.7 °F /  -2.4 °C 30.2in /  1021.9hPa SSE 4.3mph /  6.9km/h 6.3mph /  10.1km/h 98% 0in /  0.0mm
05:19 27.9 °F /  -2.3 °C 27.5 °F /  -2.5 °C 30.2in /  1021.9hPa SSE 4.3mph /  6.9km/h 7.8mph /  12.6km/h 98% 0in /  0.0mm
05:29 27.9 °F /  -2.3 °C 27.5 °F /  -2.5 °C 30.2in /  1021.9hPa SSE 5.4mph /  8.7km/h 6.9mph /  11.1km/h 98% 0in /  0.0mm
05:39 27.9 °F /  -2.3 °C 27.5 °F /  -2.5 °C 30.2in /  1021.9hPa SSE 4mph /  6.4km/h 8.5mph /  13.7km/h 98% 0in /  0.0mm
05:49 27.9 °F /  -2.3 °C 27.5 °F /  -2.5 °C 30.2in /  1020.9hPa SSE 6.3mph /  10.1km/h 8.7mph /  14.0km/h 98% 0in /  0.0mm
05:59 27.9 °F /  -2.3 °C 27.5 °F /  -2.5 °C 30.2in /  1020.9hPa SSE 5.6mph /  9.0km/h 8.7mph /  14.0km/h 98% 0in /  0.0mm
06:09 27.9 °F /  -2.3 °C 27.5 °F /  -2.5 °C 30.2in /  1020.9hPa SSE 5.4mph /  8.7km/h 7.4mph /  11.9km/h 98% 0in /  0.0mm
06:19 27.9 °F /  -2.3 °C 27.5 °F /  -2.5 °C 30.1in /  1019.9hPa SSE 6.7mph /  10.8km/h 6.7mph /  10.8km/h 98% 0in /  0.0mm
06:29 27.9 °F /  -2.3 °C 27.5 °F /  -2.5 °C 30.1in /  1019.9hPa SSE 3.6mph /  5.8km/h 8.5mph /  13.7km/h 98% 0in /  0.0mm
06:39 27.9 °F /  -2.3 °C 27.5 °F /  -2.5 °C 30.1in /  1019.9hPa SSE 7.8mph /  12.6km/h 8.1mph /  13.0km/h 98% 0in /  0.0mm
06:49 27.9 °F /  -2.3 °C 27.5 °F /  -2.5 °C 30.2in /  1020.9hPa SSE 5.4mph /  8.7km/h 7.8mph /  12.6km/h 98% 0in /  0.0mm
06:59 27.9 °F /  -2.3 °C 27.5 °F /  -2.5 °C 30.2in /  1020.9hPa SSE 5.8mph /  9.3km/h 8.5mph /  13.7km/h 98% 0in /  0.0mm
07:09 27.9 °F /  -2.3 °C 27.5 °F /  -2.5 °C 30.2in /  1020.9hPa SSE 4.9mph /  7.9km/h 8.5mph /  13.7km/h 98% 0in /  0.0mm
07:19 27.9 °F /  -2.3 °C 27.5 °F /  -2.5 °C 30.2in /  1020.9hPa SSE 4.3mph /  6.9km/h 9.6mph /  15.4km/h 98% 0in /  0.0mm
07:29 27.9 °F /  -2.3 °C 27.3 °F /  -2.6 °C 30.2in /  1020.9hPa SSE 3.8mph /  6.1km/h 8.5mph /  13.7km/h 98% 0in /  0.0mm
07:39 27.9 °F /  -2.3 °C 27.3 °F /  -2.6 °C 30.1in /  1019.9hPa SSE 5.8mph /  9.3km/h 8.7mph /  14.0km/h 98% 0in /  0.0mm
07:49 27.3 °F /  -2.6 °C 27 °F /  -2.8 °C 30.1in /  1019.9hPa SSE 2.9mph /  4.7km/h 8.5mph /  13.7km/h 98% 0in /  0.0mm
07:59 27.1 °F /  -2.7 °C 26.6 °F /  -3.0 °C 30.1in /  1019.9hPa SSE 4.3mph /  6.9km/h 8.7mph /  14.0km/h 98% 0in /  0.0mm
08:09 27.1 °F /  -2.7 °C 26.6 °F /  -3.0 °C 30.1in /  1019.9hPa SSE 3.8mph /  6.1km/h 8.1mph /  13.0km/h 98% 0in /  0.0mm
08:19 27.1 °F /  -2.7 °C 26.6 °F /  -3.0 °C 30.1in /  1018.8hPa SSE 5.4mph /  8.7km/h 7.6mph /  12.2km/h 98% 0in /  0.0mm
08:29 27.1 °F /  -2.7 °C 26.8 °F /  -2.9 °C 30.1in /  1018.8hPa SSE 6.5mph /  10.5km/h 8.5mph /  13.7km/h 98% 0in /  0.0mm
08:39 27.1 °F /  -2.7 °C 26.6 °F /  -3.0 °C 30.1in /  1018.8hPa SSE 5.4mph /  8.7km/h 9.8mph /  15.8km/h 98% 0in /  0.0mm
08:49 27.1 °F /  -2.7 °C 26.6 °F /  -3.0 °C 30.1in /  1018.8hPa SSE 7.4mph /  11.9km/h 8.1mph /  13.0km/h 98% 0in /  0.0mm
08:59 27.1 °F /  -2.7 °C 26.6 °F /  -3.0 °C 30.1in /  1018.8hPa SSE 5.6mph /  9.0km/h 8.5mph /  13.7km/h 98% 0in /  0.0mm
09:09 27 °F /  -2.8 °C 26.4 °F /  -3.1 °C 30.1in /  1018.8hPa SSE 7.8mph /  12.6km/h 13mph /  20.9km/h 98% 0in /  0.0mm
09:19 27.1 °F /  -2.7 °C 26.6 °F /  -3.0 °C 30.1in /  1018.8hPa SSE 5.4mph /  8.7km/h 8.1mph /  13.0km/h 98% 0in /  0.0mm
09:29 27.1 °F /  -2.7 °C 26.6 °F /  -3.0 °C 30.1in /  1018.8hPa SSE 4.9mph /  7.9km/h 8.5mph /  13.7km/h 98% 0in /  0.0mm
09:39 27.3 °F /  -2.6 °C 27 °F /  -2.8 °C 30.1in /  1018.2hPa SSE 5.4mph /  8.7km/h 8.5mph /  13.7km/h 98% 0in /  0.0mm
09:49 27.7 °F /  -2.4 °C 27.1 °F /  -2.7 °C 30.1in /  1018.8hPa SSE 7.2mph /  11.6km/h 7.8mph /  12.6km/h 98% 0in /  0.0mm
09:59 27.9 °F /  -2.3 °C 27.3 °F /  -2.6 °C 30.1in /  1018.8hPa SSE 3.1mph /  5.0km/h 6.5mph /  10.5km/h 98% 0in /  0.0mm
10:09 27.9 °F /  -2.3 °C 27.5 °F /  -2.5 °C 30.1in /  1018.8hPa SSE 6.5mph /  10.5km/h 8.1mph /  13.0km/h 98% 0in /  0.0mm
10:19 28.2 °F /  -2.1 °C 27.9 °F /  -2.3 °C 30.1in /  1018.8hPa SSE 4.9mph /  7.9km/h 7.6mph /  12.2km/h 98% 0in /  0.0mm
10:29 28.6 °F /  -1.9 °C 28 °F /  -2.2 °C 30.1in /  1018.8hPa SSE 3.1mph /  5.0km/h 7.8mph /  12.6km/h 98% 0in /  0.0mm
10:39 28.6 °F /  -1.9 °C 28.2 °F /  -2.1 °C 30.1in /  1019.9hPa SSE 7.6mph /  12.2km/h 8.7mph /  14.0km/h 98% 0in /  0.0mm
10:49 28.8 °F /  -1.8 °C 28.2 °F /  -2.1 °C 30.1in /  1018.8hPa SSE 5.6mph /  9.0km/h 8.9mph /  14.3km/h 98% 0in /  0.0mm
10:59 28.9 °F /  -1.7 °C 28.6 °F /  -1.9 °C 30.1in /  1018.8hPa SSE 6mph /  9.7km/h 8.1mph /  13.0km/h 98% 0in /  0.0mm
11:09 29.1 °F /  -1.6 °C 28.8 °F /  -1.8 °C 30.1in /  1018.8hPa SSE 3.8mph /  6.1km/h 8.1mph /  13.0km/h 98% 0in /  0.0mm
11:19 29.5 °F /  -1.4 °C 28.9 °F /  -1.7 °C 30.1in /  1018.8hPa SSE 5.8mph /  9.3km/h 7.8mph /  12.6km/h 98% 0in /  0.0mm
11:29 29.7 °F /  -1.3 °C 29.1 °F /  -1.6 °C 30.1in /  1018.8hPa SSE 4.9mph /  7.9km/h 8.1mph /  13.0km/h 98% 0in /  0.0mm
11:39 29.7 °F /  -1.3 °C 29.1 °F /  -1.6 °C 30.1in /  1018.8hPa SSE 5.8mph /  9.3km/h 9.4mph /  15.1km/h 98% 0in /  0.0mm
11:49 29.8 °F /  -1.2 °C 29.5 °F /  -1.4 °C 30.1in /  1018.8hPa SSE 8.7mph /  14.0km/h 8.7mph /  14.0km/h 98% 0in /  0.0mm
11:59 29.8 °F /  -1.2 °C 29.5 °F /  -1.4 °C 30.1in /  1018.8hPa SSE 2.7mph /  4.3km/h 9.6mph /  15.4km/h 98% 0in /  0.0mm
12:09 30 °F /  -1.1 °C 29.7 °F /  -1.3 °C 30.1in /  1018.8hPa SSE 7.6mph /  12.2km/h 8.7mph /  14.0km/h 98% 0in /  0.0mm
12:19 30 °F /  -1.1 °C 29.7 °F /  -1.3 °C 30.1in /  1018.2hPa SSE 4.9mph /  7.9km/h 10.5mph /  16.9km/h 98% 0in /  0.0mm
12:29 30.2 °F /  -1.0 °C 29.7 °F /  -1.3 °C 30.1in /  1018.2hPa SSE 4mph /  6.4km/h 9.8mph /  15.8km/h 98% 0in /  0.0mm
12:39 30.2 °F /  -1.0 °C 29.7 °F /  -1.3 °C 30.1in /  1018.2hPa SSE 5.6mph /  9.0km/h 8.7mph /  14.0km/h 98% 0in /  0.0mm
12:49 30.4 °F /  -0.9 °C 29.8 °F /  -1.2 °C 30in /  1016.8hPa SSE 8.1mph /  13.0km/h 10.7mph /  17.2km/h 98% 0in /  0.0mm
12:59 30.4 °F /  -0.9 °C 29.8 °F /  -1.2 °C 30in /  1016.8hPa SSE 6.3mph /  10.1km/h 10.5mph /  16.9km/h 98% 0in /  0.0mm
13:09 30.6 °F /  -0.8 °C 30 °F /  -1.1 °C 30in /  1016.8hPa SSE 8.7mph /  14.0km/h 11.9mph /  19.1km/h 98% 0in /  0.0mm
13:19 30.9 °F /  -0.6 °C 30.4 °F /  -0.9 °C 30in /  1016.8hPa SSE 10.3mph /  16.6km/h 11mph /  17.7km/h 98% 0in /  0.0mm
13:29 30.9 °F /  -0.6 °C 30.4 °F /  -0.9 °C 30in /  1016.8hPa SSE 6.3mph /  10.1km/h 11.4mph /  18.3km/h 98% 0in /  0.0mm
13:39 31.1 °F /  -0.5 °C 30.6 °F /  -0.8 °C 30in /  1016.8hPa SSE 4.9mph /  7.9km/h 8.7mph /  14.0km/h 98% 0in /  0.0mm
13:49 31.1 °F /  -0.5 °C 30.6 °F /  -0.8 °C 30.1in /  1018.2hPa SSE 5.6mph /  9.0km/h 8.1mph /  13.0km/h 98% 0in /  0.0mm
13:59 31.5 °F /  -0.3 °C 30.9 °F /  -0.6 °C 30.1in /  1018.2hPa SSE 6.3mph /  10.1km/h 9.8mph /  15.8km/h 98% 0in /  0.0mm
14:09 31.5 °F /  -0.3 °C 30.9 °F /  -0.6 °C 30in /  1016.8hPa SSE 4.7mph /  7.6km/h 8.5mph /  13.7km/h 98% 0in /  0.0mm
14:19 31.6 °F /  -0.2 °C 31.1 °F /  -0.5 °C 30in /  1016.8hPa SSE 3.4mph /  5.5km/h 8.1mph /  13.0km/h 98% 0in /  0.0mm
14:29 31.8 °F /  -0.1 °C 31.3 °F /  -0.4 °C 30in /  1016.8hPa SSE 7.8mph /  12.6km/h 8.1mph /  13.0km/h 98% 0in /  0.0mm
14:39 31.8 °F /  -0.1 °C 31.3 °F /  -0.4 °C 30in /  1016.8hPa SSE 5.8mph /  9.3km/h 8.7mph /  14.0km/h 98% 0in /  0.0mm
14:49 32 °F /  0.0 °C 31.5 °F /  -0.3 °C 30in /  1016.8hPa SSE 7.4mph /  11.9km/h 8.5mph /  13.7km/h 98% 0in /  0.0mm
14:59 32 °F /  0.0 °C 31.5 °F /  -0.3 °C 30in /  1016.8hPa SSE 5.8mph /  9.3km/h 10.7mph /  17.2km/h 98% 0in /  0.0mm
15:09 32.2 °F /  0.1 °C 31.6 °F /  -0.2 °C 30in /  1016.1hPa SSE 9.4mph /  15.1km/h 9.4mph /  15.1km/h 98% 0in /  0.0mm
15:19 32.2 °F /  0.1 °C 31.6 °F /  -0.2 °C 30in /  1016.1hPa South 6mph /  9.7km/h 9.4mph /  15.1km/h 98% 0in /  0.0mm
15:29 32.2 °F /  0.1 °C 31.6 °F /  -0.2 °C 30in /  1016.1hPa SW 4.7mph /  7.6km/h 8.5mph /  13.7km/h 98% 0in /  0.0mm
15:39 32.2 °F /  0.1 °C 31.6 °F /  -0.2 °C 30in /  1016.1hPa South 4mph /  6.4km/h 10.1mph /  16.3km/h 98% 0in /  0.0mm
15:49 32.2 °F /  0.1 °C 31.6 °F /  -0.2 °C 30in /  1016.1hPa South 4.3mph /  6.9km/h 9.4mph /  15.1km/h 98% 0in /  0.0mm
15:59 32.4 °F /  0.2 °C 31.8 °F /  -0.1 °C 30in /  1016.1hPa WSW 4.3mph /  6.9km/h 9.8mph /  15.8km/h 98% 0in /  0.0mm
16:09 32.4 °F /  0.2 °C 31.8 °F /  -0.1 °C 30in /  1016.8hPa SSW 4mph /  6.4km/h 7.6mph /  12.2km/h 98% 0in /  0.0mm
16:19 32.5 °F /  0.3 °C 32 °F /  0.0 °C 30in /  1016.1hPa SSW 2.5mph /  4.0km/h 8.5mph /  13.7km/h 98% 0in /  0.0mm
16:29 32.5 °F /  0.3 °C 32 °F /  0.0 °C 30in /  1016.1hPa South 3.1mph /  5.0km/h 8.5mph /  13.7km/h 98% 0in /  0.0mm
16:39 32.5 °F /  0.3 °C 32 °F /  0.0 °C 30in /  1016.8hPa South 6mph /  9.7km/h 8.7mph /  14.0km/h 98% 0in /  0.0mm
16:49 32.5 °F /  0.3 °C 32 °F /  0.0 °C 30in /  1016.8hPa South 7.4mph /  11.9km/h 10.7mph /  17.2km/h 98% 0in /  0.0mm
16:59 32.5 °F /  0.3 °C 32 °F /  0.0 °C 30in /  1016.8hPa SSW 5.6mph /  9.0km/h 8.7mph /  14.0km/h 98% 0in /  0.0mm
17:09 32.5 °F /  0.3 °C 32 °F /  0.0 °C 30in /  1016.8hPa SSW 4.7mph /  7.6km/h 8.1mph /  13.0km/h 98% 0in /  0.0mm
17:19 32.5 °F /  0.3 °C 32 °F /  0.0 °C 30in /  1016.8hPa South 5.4mph /  8.7km/h 7.8mph /  12.6km/h 98% 0in /  0.0mm
17:29 32.5 °F /  0.3 °C 32 °F /  0.0 °C 30in /  1016.8hPa South 6mph /  9.7km/h 10.1mph /  16.3km/h 98% 0in /  0.0mm
17:39 32.5 °F /  0.3 °C 32 °F /  0.0 °C 30in /  1016.8hPa SSW 4.3mph /  6.9km/h 10.3mph /  16.6km/h 98% 0in /  0.0mm
17:49 32.5 °F /  0.3 °C 32 °F /  0.0 °C 30in /  1016.8hPa SSW 5.4mph /  8.7km/h 8.5mph /  13.7km/h 98% 0in /  0.0mm
17:59 32.5 °F /  0.3 °C 32 °F /  0.0 °C 30in /  1016.8hPa South 7.8mph /  12.6km/h 7.8mph /  12.6km/h 98% 0in /  0.0mm
18:09 32.7 °F /  0.4 °C 32.2 °F /  0.1 °C 30in /  1016.8hPa SSW 4mph /  6.4km/h 8.7mph /  14.0km/h 98% 0in /  0.0mm
18:19 32.7 °F /  0.4 °C 32.2 °F /  0.1 °C 30in /  1016.8hPa SSW 6mph /  9.7km/h 8.7mph /  14.0km/h 98% 0in /  0.0mm
18:29 32.7 °F /  0.4 °C 32.2 °F /  0.1 °C 30in /  1016.8hPa SSW 6.3mph /  10.1km/h 8.5mph /  13.7km/h 98% 0in /  0.0mm
18:39 32.7 °F /  0.4 °C 32.2 °F /  0.1 °C 30in /  1016.8hPa South 6.3mph /  10.1km/h 8.9mph /  14.3km/h 98% 0in /  0.0mm
18:49 32.7 °F /  0.4 °C 32.2 °F /  0.1 °C 30in /  1016.8hPa South 7.2mph /  11.6km/h 8.9mph /  14.3km/h 98% 0in /  0.0mm
18:59 32.7 °F /  0.4 °C 32.2 °F /  0.1 °C 30in /  1016.8hPa SSW 4mph /  6.4km/h 7.6mph /  12.2km/h 98% 0in /  0.0mm
19:09 32.7 °F /  0.4 °C 32.2 °F /  0.1 °C 30in /  1016.8hPa South 9.8mph /  15.8km/h 9.8mph /  15.8km/h 98% 0in /  0.0mm
19:19 32.7 °F /  0.4 °C 32.2 °F /  0.1 °C 30in /  1016.8hPa South 5.8mph /  9.3km/h 9.8mph /  15.8km/h 98% 0in /  0.0mm
19:29 32.7 °F /  0.4 °C 32.2 °F /  0.1 °C 30in /  1016.8hPa South 6mph /  9.7km/h 7.6mph /  12.2km/h 98% 0in /  0.0mm
19:39 32.7 °F /  0.4 °C 32.2 °F /  0.1 °C 30.1in /  1018.2hPa SSW 6.3mph /  10.1km/h 9.6mph /  15.4km/h 98% 0in /  0.0mm
19:49 32.7 °F /  0.4 °C 32.2 °F /  0.1 °C 30.1in /  1018.2hPa South 5.4mph /  8.7km/h 8.1mph /  13.0km/h 98% 0in /  0.0mm
19:59 32.7 °F /  0.4 °C 32.2 °F /  0.1 °C 30.1in /  1018.2hPa South 3.4mph /  5.5km/h 9.6mph /  15.4km/h 98% 0in /  0.0mm
20:09 32.9 °F /  0.5 °C 32.4 °F /  0.2 °C 30.1in /  1018.2hPa SSW 5.6mph /  9.0km/h 7.4mph /  11.9km/h 98% 0in /  0.0mm
20:19 32.9 °F /  0.5 °C 32.4 °F /  0.2 °C 30.1in /  1018.2hPa SSW 4.3mph /  6.9km/h 8.9mph /  14.3km/h 98% 0in /  0.0mm
20:29 33.1 °F /  0.6 °C 32.5 °F /  0.3 °C 30.1in /  1018.2hPa South 7.4mph /  11.9km/h 7.8mph /  12.6km/h 98% 0in /  0.0mm
20:39 33.1 °F /  0.6 °C 32.5 °F /  0.3 °C 30.1in /  1018.2hPa South 4.3mph /  6.9km/h 9.8mph /  15.8km/h 98% 0in /  0.0mm
20:49 33.1 °F /  0.6 °C 32.5 °F /  0.3 °C 30.1in /  1018.2hPa SSW 5.6mph /  9.0km/h 8.5mph /  13.7km/h 98% 0in /  0.0mm
20:59 33.1 °F /  0.6 °C 32.5 °F /  0.3 °C 30.1in /  1018.2hPa SW 4mph /  6.4km/h 8.1mph /  13.0km/h 98% 0in /  0.0mm
21:09 33.3 °F /  0.7 °C 32.7 °F /  0.4 °C 30.1in /  1018.2hPa South 5.4mph /  8.7km/h 8.7mph /  14.0km/h 98% 0in /  0.0mm
21:19 33.3 °F /  0.7 °C 32.7 °F /  0.4 °C 30.1in /  1018.2hPa South 4.3mph /  6.9km/h 7.4mph /  11.9km/h 98% 0in /  0.0mm
21:29 33.3 °F /  0.7 °C 32.7 °F /  0.4 °C 30.1in /  1018.2hPa South 3.6mph /  5.8km/h 8.5mph /  13.7km/h 98% 0in /  0.0mm
21:39 33.3 °F /  0.7 °C 32.7 °F /  0.4 °C 30.1in /  1018.2hPa South 3.6mph /  5.8km/h 8.5mph /  13.7km/h 98% 0in /  0.0mm
21:49 33.3 °F /  0.7 °C 32.7 °F /  0.4 °C 30.1in /  1018.2hPa SSW 5.4mph /  8.7km/h 6mph /  9.7km/h 98% 0in /  0.0mm
21:59 33.4 °F /  0.8 °C 32.9 °F /  0.5 °C 30.1in /  1018.2hPa SSW 6.3mph /  10.1km/h 6.3mph /  10.1km/h 98% 0in /  0.0mm
22:09 33.4 °F /  0.8 °C 32.9 °F /  0.5 °C 30.1in /  1018.8hPa SSW 3.8mph /  6.1km/h 7.6mph /  12.2km/h 98% 0in /  0.0mm
22:19 33.4 °F /  0.8 °C 32.9 °F /  0.5 °C 30.1in /  1018.8hPa South 7.4mph /  11.9km/h 7.4mph /  11.9km/h 98% 0in /  0.0mm
22:29 33.6 °F /  0.9 °C 33.1 °F /  0.6 °C 30.1in /  1018.8hPa South 4mph /  6.4km/h 6.3mph /  10.1km/h 98% 0in /  0.0mm
22:39 33.6 °F /  0.9 °C 33.1 °F /  0.6 °C 30.1in /  1018.8hPa SSW 6.5mph /  10.5km/h 6.5mph /  10.5km/h 98% 0in /  0.0mm
22:49 33.6 °F /  0.9 °C 33.1 °F /  0.6 °C 30.1in /  1018.8hPa SSW 3.4mph /  5.5km/h 6.5mph /  10.5km/h 98% 0in /  0.0mm
22:59 33.6 °F /  0.9 °C 33.1 °F /  0.6 °C 30.1in /  1018.8hPa SSW 3.4mph /  5.5km/h 5.6mph /  9.0km/h 98% 0in /  0.0mm
23:09 33.8 °F /  1.0 °C 33.3 °F /  0.7 °C 30.1in /  1018.8hPa SSW 4.3mph /  6.9km/h 6mph /  9.7km/h 98% 0in /  0.0mm
23:19 33.8 °F /  1.0 °C 33.3 °F /  0.7 °C 30.1in /  1018.8hPa South 3.8mph /  6.1km/h 7.6mph /  12.2km/h 98% 0in /  0.0mm
23:29 33.8 °F /  1.0 °C 33.3 °F /  0.7 °C 30.1in /  1018.8hPa SW 3.4mph /  5.5km/h 6.5mph /  10.5km/h 98% 0in /  0.0mm
23:39 33.8 °F /  1.0 °C 33.3 °F /  0.7 °C 30.1in /  1018.8hPa SSW 3.4mph /  5.5km/h 6mph /  9.7km/h 98% 0in /  0.0mm
23:49 33.8 °F /  1.0 °C 33.3 °F /  0.7 °C 30.1in /  1018.8hPa SSW 4.5mph /  7.2km/h 6.5mph /  10.5km/h 98% 0in /  0.0mm
23:59 34 °F /  1.1 °C 33.4 °F /  0.8 °C 30.1in /  1018.8hPa SW 4mph /  6.4km/h 7.2mph /  11.6km/h 98% 0in /  0.0mm
Données Historique de Météo Turbie

Mise a jour : 20/05/2018 19:18:12
Généré par Cumulus 1.9.4 (1099)